createdAt,value
2018-04-27T00:01:43.305Z,80.40
2018-04-27T00:04:11.427Z,79.70
2018-04-27T00:09:31.241Z,80.10
2018-04-27T00:11:59.342Z,80.00
2018-04-27T00:14:27.463Z,80.50
2018-04-27T00:16:55.560Z,80.30
2018-04-27T00:19:25.851Z,80.00
2018-04-27T00:22:00.632Z,79.90
2018-04-27T00:24:28.727Z,80.60
2018-04-27T00:26:56.850Z,80.40
2018-04-27T00:29:24.938Z,79.70
2018-04-27T00:31:53.051Z,80.00
2018-04-27T00:34:21.216Z,80.40
2018-04-27T00:36:49.283Z,80.10
2018-04-27T00:39:20.425Z,80.00
2018-04-27T00:41:49.413Z,80.10
2018-04-27T00:44:17.514Z,80.10
2018-04-27T00:46:48.858Z,79.60
2018-04-27T00:49:19.705Z,79.60
2018-04-27T00:51:48.560Z,79.10
2018-04-27T00:54:16.690Z,79.10
2018-04-27T00:56:44.914Z,79.00
2018-04-27T00:59:13.054Z,79.30
2018-04-27T01:01:41.166Z,79.60
2018-04-27T01:04:09.313Z,79.50
2018-04-27T01:06:37.412Z,79.70
2018-04-27T01:09:05.602Z,79.50
2018-04-27T01:11:33.704Z,79.60
2018-04-27T01:14:01.818Z,79.90
2018-04-27T01:16:29.925Z,80.00
2018-04-27T01:18:58.056Z,80.10
2018-04-27T01:21:26.166Z,79.50
2018-04-27T01:23:54.259Z,78.80
2018-04-27T01:26:22.391Z,78.50
2018-04-27T01:28:50.499Z,78.90
2018-04-27T01:31:18.605Z,80.00
2018-04-27T01:33:46.705Z,80.50
2018-04-27T01:36:14.805Z,80.40
2018-04-27T01:38:42.902Z,79.90
2018-04-27T01:41:11.798Z,80.80
2018-04-27T01:43:40.677Z,82.00
2018-04-27T01:46:08.851Z,81.10
2018-04-27T01:48:36.972Z,81.50
2018-04-27T01:51:05.085Z,81.70
2018-04-27T01:53:33.521Z,81.80
2018-04-27T01:56:01.765Z,81.30
2018-04-27T01:58:29.970Z,81.80
2018-04-27T02:00:58.870Z,83.00
2018-04-27T02:03:29.323Z,82.20
2018-04-27T02:05:57.472Z,83.10
2018-04-27T02:08:26.579Z,82.30
2018-04-27T02:10:55.437Z,81.90
2018-04-27T02:13:23.534Z,81.90
2018-04-27T02:15:52.408Z,81.80
2018-04-27T02:18:21.725Z,81.80
2018-04-27T02:20:50.588Z,82.60
2018-04-27T02:23:20.014Z,82.60
2018-04-27T02:25:48.924Z,83.10
2018-04-27T02:28:17.054Z,83.00
2018-04-27T02:30:45.169Z,82.10
2018-04-27T02:33:15.639Z,82.40
2018-04-27T02:35:43.746Z,82.30
2018-04-27T02:38:13.643Z,82.60
2018-04-27T02:40:41.741Z,82.30
2018-04-27T02:43:09.857Z,82.30
2018-04-27T02:45:37.955Z,82.30
2018-04-27T02:48:06.167Z,82.20
2018-04-27T02:50:34.300Z,82.40
2018-04-27T02:53:03.162Z,82.40
2018-04-27T02:55:32.060Z,82.90
2018-04-27T02:58:00.185Z,82.80
2018-04-27T03:00:28.293Z,82.70
2018-04-27T03:02:57.252Z,82.30
2018-04-27T03:05:25.363Z,82.20
2018-04-27T03:07:54.221Z,82.30
2018-04-27T03:10:22.322Z,82.30
2018-04-27T03:12:50.420Z,82.30
2018-04-27T03:15:19.719Z,82.70
2018-04-27T03:17:48.612Z,82.30
2018-04-27T03:20:16.725Z,82.20
2018-04-27T03:22:44.827Z,82.70
2018-04-27T03:25:12.935Z,83.20
2018-04-27T03:27:41.826Z,82.60
2018-04-27T03:30:10.694Z,82.70
2018-04-27T03:32:38.814Z,82.70
2018-04-27T03:35:06.909Z,82.60
2018-04-27T03:37:35.022Z,82.70
2018-04-27T03:40:03.179Z,82.40
2018-04-27T03:42:31.278Z,82.70
2018-04-27T03:44:59.397Z,82.90
2018-04-27T03:47:27.518Z,82.70
2018-04-27T03:49:55.619Z,83.00
2018-04-27T03:52:23.838Z,83.20
2018-04-27T03:54:52.012Z,83.40
2018-04-27T03:57:20.116Z,83.30
2018-04-27T03:59:59.934Z,83.40
2018-04-27T04:02:40.076Z,83.20
2018-04-27T04:05:27.856Z,83.90
2018-04-27T04:07:55.969Z,84.10
2018-04-27T04:10:24.838Z,84.20
2018-04-27T04:12:52.945Z,84.20
2018-04-27T04:15:21.044Z,83.90
2018-04-27T04:17:49.152Z,84.40
2018-04-27T04:20:17.257Z,84.90
2018-04-27T04:22:45.386Z,85.00
2018-04-27T04:25:13.491Z,85.10
2018-04-27T04:27:41.738Z,85.50
2018-04-27T04:30:09.825Z,85.60
2018-04-27T04:32:37.985Z,85.60
2018-04-27T04:35:06.104Z,86.00
2018-04-27T04:37:34.225Z,85.20
2018-04-27T04:40:02.346Z,85.80
2018-04-27T04:42:31.004Z,84.80
2018-04-27T04:44:59.151Z,84.50
2018-04-27T04:47:27.438Z,84.30
2018-04-27T04:49:55.686Z,83.90
2018-04-27T04:52:24.636Z,85.30
2018-04-27T04:54:52.706Z,85.20
2018-04-27T04:57:20.823Z,86.00
2018-04-27T04:59:51.190Z,85.70
2018-04-27T05:02:19.303Z,85.90
2018-04-27T05:04:47.448Z,85.90
2018-04-27T05:07:15.599Z,85.70
2018-04-27T05:09:43.721Z,85.70
2018-04-27T05:12:11.850Z,85.60
2018-04-27T05:14:40.023Z,85.30
2018-04-27T05:17:08.140Z,85.20
2018-04-27T05:19:36.269Z,85.10
2018-04-27T05:22:04.389Z,84.90
2018-04-27T05:24:32.518Z,85.10
2018-04-27T05:27:00.650Z,85.60
2018-04-27T05:29:28.762Z,85.20
2018-04-27T05:31:57.347Z,84.50
2018-04-27T05:34:26.229Z,82.70
2018-04-27T05:36:57.789Z,83.10
2018-04-27T05:39:26.676Z,82.80
2018-04-27T05:41:57.215Z,83.60
2018-04-27T05:44:25.383Z,83.50
2018-04-27T05:46:53.479Z,83.00
2018-04-27T05:49:21.696Z,81.80
2018-04-27T05:51:49.792Z,81.10
2018-04-27T05:54:18.658Z,80.60
2018-04-27T05:56:46.854Z,80.60
2018-04-27T05:59:14.999Z,80.90
2018-04-27T06:01:43.099Z,79.90
2018-04-27T06:04:15.099Z,78.30
2018-04-27T06:06:44.022Z,78.70
2018-04-27T06:09:12.087Z,78.70
2018-04-27T06:11:40.320Z,78.00
2018-04-27T06:14:12.837Z,77.20
2018-04-27T06:16:43.569Z,76.30
2018-04-27T06:19:12.444Z,74.60
2018-04-27T06:21:42.985Z,73.40
2018-04-27T06:24:14.434Z,72.30
2018-04-27T06:26:46.423Z,72.40
2018-04-27T06:29:16.926Z,71.10
2018-04-27T06:31:48.942Z,72.70
2018-04-27T06:34:19.525Z,73.20
2018-04-27T06:36:51.081Z,72.90
2018-04-27T06:39:20.709Z,72.90
2018-04-27T06:41:55.011Z,72.50
2018-04-27T06:44:26.435Z,68.50
2018-04-27T06:46:57.577Z,64.90
2018-04-27T06:49:26.603Z,65.00
2018-04-27T06:51:57.657Z,65.10
2018-04-27T06:54:28.793Z,63.50
2018-04-27T06:57:00.459Z,63.40
2018-04-27T06:59:30.512Z,62.60
2018-04-27T07:02:00.768Z,59.90
2018-04-27T07:04:30.659Z,60.80
2018-04-27T07:07:01.451Z,59.60
2018-04-27T07:09:33.213Z,57.60
2018-04-27T07:12:03.099Z,56.40
2018-04-27T07:14:34.072Z,54.50
2018-04-27T07:17:05.296Z,54.40
2018-04-27T07:19:43.122Z,54.40
2018-04-27T07:22:13.651Z,54.00
2018-04-27T07:24:44.646Z,53.70
2018-04-27T07:29:55.384Z,52.80
2018-04-27T07:32:32.352Z,53.30
2018-04-27T07:35:08.289Z,53.10
2018-04-27T07:37:39.844Z,52.60
2018-04-27T07:40:15.022Z,52.80
2018-04-27T07:42:46.274Z,52.50
2018-04-27T07:45:15.662Z,52.40
2018-04-27T07:47:47.100Z,52.60
2018-04-27T07:50:20.193Z,51.30
2018-04-27T07:52:53.068Z,51.30
2018-04-27T07:55:31.113Z,52.00
2018-04-27T07:58:18.385Z,51.70
2018-04-27T08:00:47.844Z,51.90
2018-04-27T08:03:21.959Z,52.70
2018-04-27T08:08:34.699Z,52.40
2018-04-27T08:11:04.150Z,51.80
2018-04-27T08:13:33.538Z,52.10
2018-04-27T08:16:12.974Z,52.10
2018-04-27T08:18:42.083Z,52.90
2018-04-27T08:21:14.321Z,52.20
2018-04-27T08:23:52.031Z,52.50
2018-04-27T08:26:27.064Z,52.60
2018-04-27T08:28:59.334Z,52.50
2018-04-27T08:31:32.730Z,51.70
2018-04-27T08:34:03.670Z,52.30
2018-04-27T08:36:34.405Z,52.60
2018-04-27T08:39:03.505Z,52.60
2018-04-27T08:41:37.745Z,52.10
2018-04-27T08:44:08.455Z,53.00
2018-04-27T08:46:37.557Z,52.30
2018-04-27T08:49:09.327Z,52.70
2018-04-27T08:51:39.344Z,53.00
2018-04-27T08:54:09.727Z,52.90
2018-04-27T08:56:39.790Z,52.90
2018-04-27T08:59:09.852Z,53.00
2018-04-27T09:01:40.593Z,53.10
2018-04-27T09:04:11.121Z,53.10
2018-04-27T09:06:44.926Z,53.00
2018-04-27T09:09:17.002Z,53.00
2018-04-27T09:11:49.114Z,52.60
2018-04-27T09:14:22.725Z,52.70
2018-04-27T09:17:00.525Z,52.80
2018-04-27T09:19:35.155Z,52.60
2018-04-27T09:22:08.654Z,52.50
2018-04-27T09:24:43.692Z,52.60
2018-04-27T09:27:19.447Z,51.70
2018-04-27T09:29:51.004Z,49.90
2018-04-27T09:32:21.439Z,45.70
2018-04-27T09:34:50.529Z,39.60
2018-04-27T09:37:22.186Z,32.60
2018-04-27T09:39:54.253Z,28.80
2018-04-27T09:42:27.143Z,25.50
2018-04-27T09:44:59.003Z,22.70
2018-04-27T09:47:28.718Z,21.70
2018-04-27T09:50:03.466Z,19.60
2018-04-27T09:52:35.340Z,19.50
2018-04-27T09:55:06.664Z,18.80
2018-04-27T09:57:42.517Z,18.40
2018-04-27T10:00:12.537Z,18.00
2018-04-27T10:02:43.782Z,18.70
2018-04-27T10:07:52.935Z,19.30
2018-04-27T10:10:31.248Z,19.70
2018-04-27T10:13:03.832Z,20.80
2018-04-27T10:15:37.228Z,20.80
2018-04-27T10:18:14.930Z,24.00
2018-04-27T10:20:46.179Z,24.00
2018-04-27T10:23:18.880Z,26.40
2018-04-27T10:25:52.507Z,26.30
2018-04-27T10:28:23.179Z,26.30
2018-04-27T10:30:52.511Z,26.70
2018-04-27T10:33:22.730Z,26.50
2018-04-27T10:35:57.079Z,27.50
2018-04-27T10:38:26.970Z,28.20
2018-04-27T10:40:57.076Z,29.00
2018-04-27T10:43:27.949Z,29.60
2018-04-27T10:45:57.535Z,29.50
2018-04-27T10:48:31.241Z,31.70
2018-04-27T10:51:04.232Z,31.70
2018-04-27T10:53:34.765Z,32.00
2018-04-27T10:56:06.175Z,33.00
2018-04-27T10:58:38.109Z,31.90
2018-04-27T11:01:08.312Z,33.50
2018-04-27T11:03:40.192Z,33.80
2018-04-27T11:06:11.726Z,33.80
2018-04-27T11:08:51.651Z,35.50
2018-04-27T11:11:21.806Z,35.60
2018-04-27T11:13:56.667Z,36.00
2018-04-27T11:16:26.752Z,36.00
2018-04-27T11:19:01.082Z,36.70
2018-04-27T11:21:31.809Z,36.60
2018-04-27T11:24:03.774Z,36.80
2018-04-27T11:26:33.795Z,38.00
2018-04-27T11:29:11.386Z,38.80
2018-04-27T11:31:47.761Z,38.10
2018-04-27T11:34:18.602Z,37.50
2018-04-27T11:36:51.281Z,37.70
2018-04-27T11:39:23.041Z,38.20
2018-04-27T11:41:55.008Z,37.40
2018-04-27T11:44:28.101Z,37.30
2018-04-27T11:46:58.915Z,36.90
2018-04-27T11:49:34.182Z,36.20
2018-04-27T11:52:11.569Z,36.20
2018-04-27T11:54:43.717Z,35.90
2018-04-27T11:57:17.408Z,35.90
2018-04-27T11:59:49.207Z,36.00
2018-04-27T12:02:25.142Z,35.60
2018-04-27T12:05:01.300Z,35.60
2018-04-27T12:07:36.317Z,35.80
2018-04-27T12:10:11.676Z,36.00
2018-04-27T12:12:43.111Z,36.10
2018-04-27T12:15:36.017Z,36.50
2018-04-27T12:18:05.255Z,36.50
2018-04-27T12:20:36.705Z,36.70
2018-04-27T12:23:09.180Z,37.00
2018-04-27T12:25:38.372Z,37.60
2018-04-27T12:28:09.485Z,36.50
2018-04-27T12:30:38.403Z,36.60
2018-04-27T12:33:07.702Z,35.90
2018-04-27T12:35:39.489Z,35.70
2018-04-27T12:38:10.611Z,36.40
2018-04-27T12:40:44.313Z,35.20
2018-04-27T12:43:16.725Z,33.80
2018-04-27T12:45:51.203Z,33.80
2018-04-27T12:48:24.705Z,34.20
2018-04-27T12:50:57.017Z,33.20
2018-04-27T12:53:28.245Z,33.80
2018-04-27T12:56:02.547Z,33.70
2018-04-27T12:58:33.077Z,35.90
2018-04-27T13:01:06.752Z,35.00
2018-04-27T13:03:37.420Z,34.90
2018-04-27T13:06:09.691Z,34.60
2018-04-27T13:08:40.324Z,33.80
2018-04-27T13:11:12.496Z,32.10
2018-04-27T13:13:41.698Z,31.60
2018-04-27T13:16:12.965Z,32.00
2018-04-27T13:18:44.399Z,31.90
2018-04-27T13:21:15.953Z,32.50
2018-04-27T13:23:49.660Z,32.50
2018-04-27T13:26:23.877Z,32.50
2018-04-27T13:28:55.344Z,33.30
2018-04-27T13:31:29.244Z,33.20
2018-04-27T13:34:09.297Z,33.50
2018-04-27T13:36:42.388Z,33.90
2018-04-27T13:39:12.823Z,33.80
2018-04-27T13:41:43.346Z,31.60
2018-04-27T13:44:15.009Z,31.60
2018-04-27T13:46:48.100Z,31.00
2018-04-27T13:49:20.982Z,31.00
2018-04-27T13:51:56.504Z,29.60
2018-04-27T13:54:27.558Z,29.10
2018-04-27T13:57:00.381Z,28.90
2018-04-27T13:59:34.785Z,29.30
2018-04-27T14:02:03.781Z,29.30
2018-04-27T14:04:33.400Z,29.70
2018-04-27T14:07:06.890Z,29.30
2018-04-27T14:09:37.122Z,29.40
2018-04-27T14:12:08.416Z,29.50
2018-04-27T14:14:44.629Z,29.90
2018-04-27T14:17:32.980Z,29.30
2018-04-27T14:20:12.624Z,30.20
2018-04-27T14:22:45.613Z,30.60
2018-04-27T14:25:17.892Z,30.50
2018-04-27T14:27:50.256Z,30.90
2018-04-27T14:30:20.075Z,30.10
2018-04-27T14:32:50.592Z,30.60
2018-04-27T14:35:22.469Z,30.10
2018-04-27T14:37:57.916Z,30.00
2018-04-27T14:40:33.260Z,30.70
2018-04-27T14:43:02.770Z,30.70
2018-04-27T14:45:36.170Z,30.20
2018-04-27T14:48:12.026Z,30.00
2018-04-27T14:50:44.865Z,29.30
2018-04-27T14:53:20.310Z,29.10
2018-04-27T14:55:50.274Z,29.50
2018-04-27T14:58:19.982Z,29.30
2018-04-27T15:00:51.134Z,29.60
2018-04-27T15:03:20.744Z,29.90
2018-04-27T15:05:51.071Z,29.90
2018-04-27T15:08:26.475Z,29.80
2018-04-27T15:10:57.033Z,28.90
2018-04-27T15:13:27.403Z,28.90
2018-04-27T15:15:58.258Z,28.60
2018-04-27T15:18:29.361Z,28.50
2018-04-27T15:20:59.502Z,28.30
2018-04-27T15:23:31.038Z,28.60
2018-04-27T15:26:13.350Z,29.90
2018-04-27T15:28:44.932Z,29.60
2018-04-27T15:31:16.891Z,29.60
2018-04-27T15:33:49.844Z,29.30
2018-04-27T15:36:18.749Z,29.50
2018-04-27T15:38:53.584Z,29.60
2018-04-27T15:41:26.144Z,30.20
2018-04-27T15:43:58.136Z,30.20
2018-04-27T15:46:31.422Z,30.70
2018-04-27T15:49:03.693Z,30.80
2018-04-27T15:51:33.510Z,29.60
2018-04-27T15:54:06.203Z,29.60
2018-04-27T15:56:36.627Z,28.60
2018-04-27T15:59:07.662Z,27.90
2018-04-27T16:01:36.319Z,27.90
2018-04-27T16:04:11.300Z,28.70
2018-04-27T16:06:41.251Z,28.90
2018-04-27T16:09:15.601Z,28.70
2018-04-27T16:11:49.157Z,27.50
2018-04-27T16:14:19.755Z,27.30
2018-04-27T16:16:57.109Z,27.60
2018-04-27T16:19:26.568Z,28.20
2018-04-27T16:21:54.616Z,28.20
2018-04-27T16:24:22.799Z,28.50
2018-04-27T16:26:50.842Z,26.30
2018-04-27T16:29:18.922Z,26.60
2018-04-27T16:31:46.987Z,26.60
2018-04-27T16:34:15.245Z,26.90
2018-04-27T16:36:43.489Z,25.90
2018-04-27T16:39:11.523Z,25.80
2018-04-27T16:41:39.588Z,26.50
2018-04-27T16:44:07.635Z,26.40
2018-04-27T16:46:37.648Z,26.50
2018-04-27T16:49:05.710Z,26.70
2018-04-27T16:51:34.529Z,26.60
2018-04-27T16:54:02.576Z,26.60
2018-04-27T16:56:33.093Z,27.00
2018-04-27T16:59:03.050Z,26.90
2018-04-27T17:01:34.134Z,27.20
2018-04-27T17:04:04.160Z,27.40
2018-04-27T17:06:36.480Z,27.00
2018-04-27T17:09:05.762Z,27.00
2018-04-27T17:11:36.335Z,27.00
2018-04-27T17:14:17.338Z,27.10
2018-04-27T17:16:51.948Z,27.10
2018-04-27T17:19:41.758Z,27.10
2018-04-27T17:24:57.953Z,28.30
2018-04-27T17:27:38.157Z,30.00
2018-04-27T17:30:17.213Z,30.50
2018-04-27T17:32:50.958Z,31.20
2018-04-27T17:38:09.202Z,30.60
2018-04-27T17:40:37.445Z,30.50
2018-04-27T17:43:06.017Z,30.10
2018-04-27T17:45:34.233Z,30.00
2018-04-27T17:48:02.578Z,30.50
2018-04-27T17:50:30.608Z,30.90
2018-04-27T17:52:58.655Z,30.10
2018-04-27T17:55:27.466Z,30.90
2018-04-27T17:57:55.693Z,30.50
2018-04-27T18:00:23.737Z,30.60
2018-04-27T18:02:51.871Z,30.80
2018-04-27T18:05:20.701Z,31.60
2018-04-27T18:07:48.808Z,31.60
2018-04-27T18:10:16.852Z,32.10
2018-04-27T18:12:44.919Z,32.30
2018-04-27T18:15:13.415Z,32.50
2018-04-27T18:17:41.522Z,33.30
2018-04-27T18:20:09.534Z,33.20
2018-04-27T18:22:37.591Z,33.60
2018-04-27T18:25:05.779Z,34.00
2018-04-27T18:27:34.732Z,33.90
2018-04-27T18:30:06.752Z,35.00
2018-04-27T18:32:34.832Z,34.80
2018-04-27T18:35:03.351Z,35.50
2018-04-27T18:37:32.219Z,36.00
2018-04-27T18:40:00.415Z,36.00
2018-04-27T18:42:29.279Z,36.70
2018-04-27T18:44:57.728Z,36.60
2018-04-27T18:47:25.792Z,37.10
2018-04-27T18:49:53.842Z,37.60
2018-04-27T18:52:21.889Z,38.10
2018-04-27T18:54:49.954Z,39.40
2018-04-27T18:57:22.076Z,41.00
2018-04-27T18:59:50.108Z,42.10
2018-04-27T19:02:18.949Z,43.60
2018-04-27T19:04:47.031Z,43.70
2018-04-27T19:07:15.076Z,44.30
2018-04-27T19:09:43.140Z,44.50
2018-04-27T19:12:11.202Z,44.90
2018-04-27T19:14:40.211Z,45.60
2018-04-27T19:17:08.312Z,47.10
2018-04-27T19:19:36.383Z,47.30
2018-04-27T19:22:04.428Z,48.20
2018-04-27T19:24:32.487Z,48.70
2018-04-27T19:27:00.539Z,49.10
2018-04-27T19:29:28.643Z,49.30
2018-04-27T19:31:56.645Z,49.60
2018-04-27T19:34:24.713Z,50.10
2018-04-27T19:36:52.761Z,50.20
2018-04-27T19:39:20.801Z,50.70
2018-04-27T19:41:48.867Z,51.20
2018-04-27T19:44:16.912Z,51.70
2018-04-27T19:46:45.759Z,52.50
2018-04-27T19:49:15.828Z,52.50
2018-04-27T19:51:44.644Z,53.00
2018-04-27T19:54:12.708Z,53.00
2018-04-27T19:56:40.747Z,53.20
2018-04-27T19:59:09.568Z,53.90
2018-04-27T20:01:37.639Z,53.90
2018-04-27T20:04:05.997Z,54.50
2018-04-27T20:06:34.812Z,50.80
2018-04-27T20:09:02.875Z,50.80
2018-04-27T20:11:30.966Z,50.20
2018-04-27T20:13:59.866Z,49.40
2018-04-27T20:16:40.997Z,49.40
2018-04-27T20:19:09.838Z,48.30
2018-04-27T20:21:37.881Z,48.30
2018-04-27T20:24:05.945Z,47.60
2018-04-27T20:26:34.017Z,46.90
2018-04-27T20:29:03.523Z,46.50
2018-04-27T20:31:31.720Z,46.20
2018-04-27T20:33:59.821Z,45.70
2018-04-27T20:36:28.029Z,45.40
2018-04-27T20:38:56.215Z,44.80
2018-04-27T20:41:25.219Z,44.30
2018-04-27T20:43:54.050Z,44.30
2018-04-27T20:46:22.340Z,44.30
2018-04-27T20:48:51.992Z,45.30
2018-04-27T20:51:20.775Z,45.10
2018-04-27T20:53:50.451Z,45.10
2018-04-27T20:56:19.421Z,45.30
2018-04-27T20:58:47.492Z,45.30
2018-04-27T21:01:15.560Z,45.10
2018-04-27T21:03:43.608Z,44.60
2018-04-27T21:06:11.679Z,44.50
2018-04-27T21:08:39.727Z,44.10
2018-04-27T21:11:07.801Z,44.30
2018-04-27T21:13:36.608Z,45.50
2018-04-27T21:16:04.687Z,45.50
2018-04-27T21:18:32.809Z,45.60
2018-04-27T21:21:01.627Z,46.50
2018-04-27T21:23:29.692Z,46.50
2018-04-27T21:25:57.745Z,46.70
2018-04-27T21:28:30.775Z,46.80
2018-04-27T21:30:58.869Z,47.10
2018-04-27T21:33:33.463Z,47.60
2018-04-27T21:36:04.108Z,48.80
2018-04-27T21:38:42.550Z,50.50
2018-04-27T21:44:35.421Z,51.70
2018-04-27T21:47:10.120Z,52.10
2018-04-27T21:49:38.347Z,53.40
2018-04-27T21:52:14.702Z,53.80
2018-04-27T21:54:43.514Z,53.90
2018-04-27T21:57:22.157Z,53.90
2018-04-27T21:59:54.887Z,54.30
2018-04-27T22:05:40.656Z,55.50
2018-04-27T22:08:14.183Z,55.50
2018-04-27T22:10:43.095Z,56.10
2018-04-27T22:13:11.239Z,56.00
2018-04-27T22:15:39.300Z,56.30
2018-04-27T22:18:08.302Z,56.60
2018-04-27T22:20:38.005Z,56.50
2018-04-27T22:23:06.934Z,57.00
2018-04-27T22:25:42.813Z,57.70
2018-04-27T22:28:12.059Z,58.00
2018-04-27T22:30:45.229Z,58.50
2018-04-27T22:33:25.147Z,58.80
2018-04-27T22:35:55.809Z,58.90
2018-04-27T22:38:25.550Z,58.80
2018-04-27T22:40:54.379Z,59.60
2018-04-27T22:43:22.488Z,59.60
2018-04-27T22:48:52.096Z,60.40
2018-04-27T22:51:23.167Z,61.00
2018-04-27T22:53:53.167Z,61.60
2018-04-27T22:56:29.601Z,61.60
2018-04-27T22:58:57.669Z,61.40
2018-04-27T23:01:25.844Z,60.70
2018-04-27T23:03:53.924Z,60.60
2018-04-27T23:06:22.068Z,60.80
2018-04-27T23:08:50.227Z,61.00
2018-04-27T23:11:20.667Z,61.00
2018-04-27T23:16:58.304Z,61.10
2018-04-27T23:19:27.147Z,61.40
2018-04-27T23:21:58.232Z,61.60
2018-04-27T23:24:26.294Z,61.60
2018-04-27T23:26:55.201Z,61.70
2018-04-27T23:29:24.518Z,61.90
2018-04-27T23:31:52.797Z,61.70
2018-04-27T23:34:23.739Z,61.10
2018-04-27T23:36:54.612Z,61.50
2018-04-27T23:39:22.726Z,61.50
2018-04-27T23:41:50.801Z,61.60
2018-04-27T23:44:18.862Z,60.80
2018-04-27T23:46:46.957Z,60.90
2018-04-27T23:49:15.105Z,61.30
2018-04-27T23:51:43.217Z,61.00
2018-04-27T23:54:11.904Z,61.60
2018-04-27T23:56:41.700Z,62.00
2018-04-27T23:59:09.773Z,62.20
